createdAt,value
2023-04-01T00:01:06.832Z,52313.97
2023-04-01T00:03:34.454Z,52391.31
2023-04-01T00:06:02.046Z,52373.00
2023-04-01T00:08:29.897Z,52383.16
2023-04-01T00:10:57.996Z,52342.47
2023-04-01T00:13:27.261Z,52373.00
2023-04-01T00:15:56.164Z,52403.50
2023-04-01T00:18:22.924Z,52379.09
2023-04-01T00:20:51.283Z,52326.19
2023-04-01T00:23:18.813Z,52313.97
2023-04-01T00:25:47.856Z,52356.72
2023-04-01T00:28:16.147Z,52324.16
2023-04-01T00:30:42.624Z,52375.03
2023-04-01T00:33:09.321Z,52336.38
2023-04-01T00:35:36.401Z,52362.81
2023-04-01T00:38:02.865Z,52377.06
2023-04-01T00:40:35.624Z,52377.06
2023-04-01T00:43:02.669Z,52385.19
2023-04-01T00:45:39.858Z,52387.22
2023-04-01T00:48:17.669Z,52385.19
2023-04-01T00:50:50.001Z,52364.84
2023-04-01T00:53:20.426Z,52352.66
2023-04-01T00:55:54.512Z,52318.06
2023-04-01T00:58:24.689Z,52342.47
2023-04-01T01:00:52.434Z,52377.06
2023-04-01T01:03:19.134Z,52350.59
2023-04-01T01:06:08.178Z,52389.28
2023-04-01T01:08:53.572Z,52364.84
2023-04-01T01:11:33.646Z,52348.56
2023-04-01T01:14:15.793Z,52322.13
2023-04-01T01:16:47.240Z,52373.00
2023-04-01T01:19:38.751Z,52387.22
2023-04-01T01:22:37.400Z,52393.34
2023-04-01T01:25:28.553Z,52346.53
2023-04-01T01:28:15.195Z,52368.94
2023-04-01T01:30:44.457Z,52356.72
2023-04-01T01:33:39.914Z,52352.66
2023-04-01T01:36:10.534Z,52356.72
2023-04-01T01:38:38.314Z,52366.88
2023-04-01T01:41:08.058Z,52309.91
2023-04-01T01:43:40.293Z,52364.84
2023-04-01T01:46:12.692Z,52360.78
2023-04-01T01:48:42.483Z,52360.78
2023-04-01T01:51:09.749Z,52387.22
2023-04-01T01:53:37.222Z,52381.13
2023-04-01T01:56:04.398Z,52324.16
2023-04-01T01:58:30.940Z,52360.78
2023-04-01T02:01:01.536Z,52332.28
2023-04-01T02:03:32.419Z,52391.31
2023-04-01T02:06:01.847Z,52362.81
2023-04-01T02:08:42.358Z,52377.06
2023-04-01T02:11:11.918Z,52362.81
2023-04-01T02:13:44.217Z,52356.72
2023-04-01T02:16:17.353Z,52348.56
2023-04-01T02:18:46.832Z,52360.78
2023-04-01T02:21:14.067Z,52338.41
2023-04-01T02:23:41.649Z,52381.13
2023-04-01T02:26:11.216Z,52354.69
2023-04-01T02:28:39.647Z,52379.09
2023-04-01T02:31:06.980Z,52377.06
2023-04-01T02:33:33.696Z,52330.25
2023-04-01T02:36:00.561Z,52385.19
2023-04-01T02:38:27.117Z,52377.06
2023-04-01T02:41:00.083Z,52391.31
2023-04-01T02:43:26.603Z,52383.16
2023-04-01T02:45:53.164Z,52397.41
2023-04-01T02:48:19.638Z,52387.22
2023-04-01T02:50:46.087Z,52375.03
2023-04-01T02:53:12.975Z,52403.50
2023-04-01T02:55:39.447Z,52366.88
2023-04-01T02:58:05.905Z,52381.13
2023-04-01T03:00:32.376Z,52360.78
2023-04-01T03:02:59.014Z,52342.47
2023-04-01T03:05:25.794Z,52385.19
2023-04-01T03:07:52.522Z,52385.19
2023-04-01T03:10:19.029Z,52338.41
2023-04-01T03:12:45.521Z,52399.44
2023-04-01T03:15:13.712Z,52350.59
2023-04-01T03:17:40.621Z,52334.34
2023-04-01T03:20:09.531Z,52368.94
2023-04-01T03:22:36.405Z,52350.59
2023-04-01T03:25:03.972Z,52346.53
2023-04-01T03:27:30.410Z,52360.78
2023-04-01T03:29:56.881Z,52377.06
2023-04-01T03:32:23.420Z,52373.00
2023-04-01T03:34:49.952Z,52368.94
2023-04-01T03:37:16.384Z,52383.16
2023-04-01T03:39:44.541Z,52391.31
2023-04-01T03:42:11.520Z,52362.81
2023-04-01T03:44:37.992Z,52360.78
2023-04-01T03:47:04.546Z,52348.56
2023-04-01T03:49:33.433Z,52362.81
2023-04-01T03:52:00.044Z,52360.78
2023-04-01T03:54:26.506Z,52348.56
2023-04-01T03:56:53.046Z,52360.78
2023-04-01T03:59:19.562Z,52415.72
2023-04-01T04:01:48.029Z,52352.66
2023-04-01T04:04:14.548Z,52375.03
2023-04-01T04:06:41.224Z,52366.88
2023-04-01T04:09:07.685Z,52377.06
2023-04-01T04:11:34.264Z,52373.00
2023-04-01T04:14:00.927Z,52348.56
2023-04-01T04:16:27.511Z,52356.72
2023-04-01T04:18:54.042Z,52340.44
2023-04-01T04:21:20.634Z,52373.00
2023-04-01T04:23:47.107Z,52360.78
2023-04-01T04:26:15.430Z,52340.44
2023-04-01T04:28:42.173Z,52362.81
2023-04-01T04:31:09.054Z,52340.44
2023-04-01T04:33:35.981Z,52377.06
2023-04-01T04:36:03.658Z,52375.03
2023-04-01T04:38:30.233Z,52366.88
2023-04-01T04:40:56.869Z,52342.47
2023-04-01T04:43:23.947Z,52344.50
2023-04-01T04:45:50.421Z,52395.38
2023-04-01T04:48:19.780Z,52340.44
2023-04-01T04:50:51.372Z,52401.47
2023-04-01T04:53:19.917Z,52330.25
2023-04-01T04:55:48.024Z,52358.75
2023-04-01T04:58:15.028Z,52350.59
2023-04-01T05:00:41.604Z,52344.50
2023-04-01T05:03:08.352Z,52366.88
2023-04-01T05:05:35.209Z,52375.03
2023-04-01T05:08:01.817Z,52330.25
2023-04-01T05:10:28.861Z,52383.16
2023-04-01T05:12:57.744Z,52354.69
2023-04-01T05:15:24.677Z,52362.81
2023-04-01T05:17:51.522Z,52342.47
2023-04-01T05:20:18.144Z,52338.41
2023-04-01T05:22:44.617Z,52366.88
2023-04-01T05:25:11.161Z,52362.81
2023-04-01T05:27:37.832Z,52377.06
2023-04-01T05:30:05.408Z,52373.00
2023-04-01T05:32:32.620Z,52362.81
2023-04-01T05:34:59.080Z,52356.72
2023-04-01T05:37:25.552Z,52362.81
2023-04-01T05:39:52.038Z,52375.03
2023-04-01T05:42:18.477Z,52356.72
2023-04-01T05:44:44.890Z,52358.75
2023-04-01T05:47:11.343Z,52364.84
2023-04-01T05:49:37.852Z,52393.34
2023-04-01T05:52:04.359Z,52391.31
2023-04-01T05:54:30.873Z,52354.69
2023-04-01T05:56:57.359Z,52338.41
2023-04-01T05:59:23.818Z,52377.06
2023-04-01T06:01:50.284Z,52328.22
2023-04-01T06:04:19.150Z,52346.53
2023-04-01T06:06:46.116Z,52362.81
2023-04-01T06:09:19.095Z,52381.13
2023-04-01T06:12:04.134Z,52358.75
2023-04-01T06:15:01.610Z,52350.59
2023-04-01T06:17:36.260Z,52362.81
2023-04-01T06:20:11.500Z,52379.09
2023-04-01T06:22:59.940Z,52358.75
2023-04-01T06:25:40.532Z,52373.00
2023-04-01T06:28:34.873Z,52364.84
2023-04-01T06:31:13.228Z,52356.72
2023-04-01T06:33:43.678Z,52297.72
2023-04-01T06:36:35.842Z,52366.88
2023-04-01T06:39:23.796Z,52350.59
2023-04-01T06:42:11.252Z,52338.41
2023-04-01T06:44:40.523Z,52340.44
2023-04-01T06:47:15.981Z,52318.06
2023-04-01T06:50:02.396Z,52350.59
2023-04-01T06:53:02.521Z,52326.19
2023-04-01T06:55:41.475Z,52322.13
2023-04-01T06:58:20.507Z,52358.75
2023-04-01T07:00:51.966Z,52303.81
2023-04-01T07:03:24.515Z,52303.81
2023-04-01T07:05:51.556Z,52346.53
2023-04-01T07:08:26.531Z,52313.97
2023-04-01T07:11:03.765Z,52322.13
2023-04-01T07:13:46.160Z,52299.75
2023-04-01T07:16:27.863Z,52318.06
2023-04-01T07:19:26.707Z,52324.16
2023-04-01T07:21:58.302Z,52316.03
2023-04-01T07:24:34.797Z,52311.94
2023-04-01T07:27:01.463Z,52332.28
2023-04-01T07:29:28.290Z,52295.66
2023-04-01T07:32:17.046Z,52299.75
2023-04-01T07:35:05.717Z,52279.41
2023-04-01T07:37:50.882Z,52307.88
2023-04-01T07:40:22.601Z,52267.19
2023-04-01T07:43:18.650Z,52318.06
2023-04-01T07:45:55.966Z,52346.53
2023-04-01T07:48:32.814Z,52316.03
2023-04-01T07:51:03.700Z,52311.94
2023-04-01T07:53:49.171Z,52305.84
2023-04-01T07:56:31.020Z,52303.81
2023-04-01T07:59:27.459Z,52287.53
2023-04-01T08:02:12.669Z,52305.84
2023-04-01T08:04:59.249Z,52309.91
2023-04-01T08:07:46.307Z,52307.88
2023-04-01T08:10:49.434Z,52320.09
2023-04-01T08:13:25.107Z,52273.28
2023-04-01T08:16:15.537Z,52254.97
2023-04-01T08:18:56.042Z,52303.81
2023-04-01T08:21:26.056Z,52279.41
2023-04-01T08:23:56.175Z,52277.34
2023-04-01T08:26:30.856Z,52267.19
2023-04-01T08:29:21.672Z,52281.44
2023-04-01T08:32:07.748Z,52277.34
2023-04-01T08:34:43.331Z,52267.19
2023-04-01T08:37:18.655Z,52265.16
2023-04-01T08:39:53.970Z,52263.13
2023-04-01T08:42:45.024Z,52271.25
2023-04-01T08:45:19.490Z,52269.22
2023-04-01T08:48:20.567Z,52283.47
2023-04-01T08:50:55.580Z,52246.84
2023-04-01T08:53:46.480Z,52283.47
2023-04-01T08:56:15.831Z,52267.19
2023-04-01T08:58:48.214Z,52246.84
2023-04-01T09:01:21.932Z,52287.53
2023-04-01T09:04:20.544Z,52303.81
2023-04-01T09:07:25.778Z,52259.03
2023-04-01T09:10:06.632Z,52275.31
2023-04-01T09:13:00.648Z,52289.56
2023-04-01T09:15:56.509Z,52283.47
2023-04-01T09:18:47.147Z,52267.19
2023-04-01T09:21:32.993Z,52250.91
2023-04-01T09:24:22.243Z,52277.34
2023-04-01T09:27:26.572Z,52263.13
2023-04-01T09:30:14.758Z,52277.34
2023-04-01T09:32:54.144Z,52305.84
2023-04-01T09:35:42.442Z,52259.03
2023-04-01T09:38:22.994Z,52234.63
2023-04-01T09:40:55.449Z,52252.94
2023-04-01T09:43:31.069Z,52250.91
2023-04-01T09:46:18.709Z,52252.94
2023-04-01T09:49:27.621Z,52257.00
2023-04-01T09:52:02.255Z,52275.31
2023-04-01T09:54:47.453Z,52267.19
2023-04-01T09:57:45.684Z,52283.47
2023-04-01T10:00:49.442Z,52287.53
2023-04-01T10:03:24.639Z,52242.78
2023-04-01T10:06:00.225Z,52220.38
2023-04-01T10:08:47.983Z,52261.09
2023-04-01T10:11:58.641Z,52277.34
2023-04-01T10:14:37.106Z,52226.50
2023-04-01T10:17:27.843Z,52261.09
2023-04-01T10:20:10.166Z,52230.56
2023-04-01T10:22:48.599Z,52236.66
2023-04-01T10:25:39.554Z,52250.91
2023-04-01T10:28:21.284Z,52289.56
2023-04-01T10:30:59.838Z,52252.94
2023-04-01T10:33:45.147Z,52248.88
2023-04-01T10:36:25.268Z,52236.66
2023-04-01T10:39:14.487Z,52271.25
2023-04-01T10:42:05.309Z,52252.94
2023-04-01T10:44:32.990Z,52212.25
2023-04-01T10:47:27.574Z,52252.94
2023-04-01T10:50:23.184Z,52224.47
2023-04-01T10:53:11.554Z,52208.19
2023-04-01T10:55:55.257Z,52254.97
2023-04-01T10:58:50.609Z,52257.00
2023-04-01T11:01:45.984Z,52250.91
2023-04-01T11:04:48.872Z,52289.56
2023-04-01T11:07:33.397Z,52267.19
2023-04-01T11:10:37.710Z,52318.06
2023-04-01T11:13:28.586Z,52293.63
2023-04-01T11:16:18.453Z,52273.28
2023-04-01T11:19:09.024Z,52303.81
2023-04-01T11:21:44.622Z,52293.63
2023-04-01T11:24:53.078Z,52277.34
2023-04-01T11:27:50.290Z,52269.22
2023-04-01T11:30:25.913Z,52301.78
2023-04-01T11:33:01.957Z,52275.31
2023-04-01T11:35:39.808Z,52311.94
2023-04-01T11:38:57.667Z,52277.34
2023-04-01T11:41:42.378Z,52285.50
2023-04-01T11:44:25.492Z,52250.91
2023-04-01T11:47:23.821Z,52289.56
2023-04-01T11:50:17.570Z,52257.00
2023-04-01T11:53:11.491Z,52261.09
2023-04-01T11:56:07.997Z,52238.69
2023-04-01T11:59:01.568Z,52250.91
2023-04-01T12:01:37.504Z,52279.41
2023-04-01T12:04:34.066Z,52254.97
2023-04-01T12:07:27.059Z,52271.25
2023-04-01T12:10:13.738Z,52206.16
2023-04-01T12:12:58.078Z,52269.22
2023-04-01T12:15:42.567Z,52242.78
2023-04-01T12:18:24.952Z,52242.78
2023-04-01T12:21:09.288Z,52222.41
2023-04-01T12:23:48.651Z,52224.47
2023-04-01T12:26:24.182Z,52216.31
2023-04-01T12:29:04.695Z,52200.03
2023-04-01T12:32:05.093Z,52200.03
2023-04-01T12:34:59.156Z,52218.34
2023-04-01T12:38:03.703Z,52242.78
2023-04-01T12:40:47.006Z,52240.75
2023-04-01T12:43:16.140Z,52257.00
2023-04-01T12:46:07.514Z,52189.88
2023-04-01T12:49:14.927Z,52208.19
2023-04-01T12:52:01.901Z,52173.59
2023-04-01T12:54:43.238Z,52254.97
2023-04-01T12:57:34.212Z,52212.25
2023-04-01T13:00:31.217Z,52191.91
2023-04-01T13:03:20.780Z,52212.25
2023-04-01T13:05:50.464Z,52191.91
2023-04-01T13:08:41.411Z,52206.16
2023-04-01T13:11:37.378Z,52191.91
2023-04-01T13:14:36.671Z,52167.50
2023-04-01T13:17:25.023Z,52177.66
2023-04-01T13:20:07.283Z,52195.97
2023-04-01T13:22:52.292Z,52139.00
2023-04-01T13:25:38.759Z,52195.97
2023-04-01T13:28:07.996Z,52128.81
2023-04-01T13:30:43.929Z,52153.25
2023-04-01T13:33:13.312Z,52159.34
2023-04-01T13:35:53.709Z,52159.34
2023-04-01T13:38:45.088Z,52126.78
2023-04-01T13:41:34.562Z,52159.34
2023-04-01T13:44:11.075Z,52177.66
2023-04-01T13:46:54.089Z,52155.28
2023-04-01T13:49:41.465Z,52177.66
2023-04-01T13:52:43.602Z,52169.53
2023-04-01T13:55:28.928Z,52155.28
2023-04-01T13:58:13.644Z,52169.53
2023-04-01T14:00:46.575Z,52214.28
2023-04-01T14:03:22.405Z,52193.94
2023-04-01T14:05:57.811Z,52234.63
2023-04-01T14:08:34.361Z,52236.66
2023-04-01T14:11:46.553Z,52216.31
2023-04-01T14:14:45.543Z,52244.81
2023-04-01T14:17:39.870Z,52244.81
2023-04-01T14:20:15.437Z,52234.63
2023-04-01T14:23:15.882Z,52224.47
2023-04-01T14:26:13.222Z,52242.78
2023-04-01T14:28:58.564Z,52234.63
2023-04-01T14:31:47.884Z,52234.63
2023-04-01T14:34:26.242Z,52287.53
2023-04-01T14:37:16.609Z,52257.00
2023-04-01T14:40:16.180Z,52250.91
2023-04-01T14:43:28.268Z,52279.41
2023-04-01T14:46:32.297Z,52291.59
2023-04-01T14:49:14.656Z,52257.00
2023-04-01T14:51:41.970Z,52257.00
2023-04-01T14:54:25.481Z,52267.19
2023-04-01T14:57:13.431Z,52267.19
2023-04-01T14:59:42.769Z,52246.84
2023-04-01T15:02:28.051Z,52273.28
2023-04-01T15:05:28.537Z,52218.34
2023-04-01T15:08:03.907Z,52200.03
2023-04-01T15:10:50.573Z,52263.13
2023-04-01T15:13:42.772Z,52261.09
2023-04-01T15:16:22.006Z,52252.94
2023-04-01T15:19:05.576Z,52259.03
2023-04-01T15:21:46.346Z,52242.78
2023-04-01T15:24:22.634Z,52228.53
2023-04-01T15:27:29.512Z,52246.84
2023-04-01T15:30:21.825Z,52252.94
2023-04-01T15:33:16.999Z,52265.16
2023-04-01T15:36:02.237Z,52250.91
2023-04-01T15:38:40.815Z,52244.81
2023-04-01T15:41:18.034Z,52244.81
2023-04-01T15:43:49.928Z,52244.81
2023-04-01T15:46:42.905Z,52228.53
2023-04-01T15:49:43.789Z,52232.59
2023-04-01T15:52:34.844Z,52259.03
2023-04-01T15:55:07.854Z,52248.88
2023-04-01T15:58:15.753Z,52208.19
2023-04-01T16:01:04.692Z,52171.56
2023-04-01T16:03:41.785Z,52200.03
2023-04-01T16:06:27.154Z,52222.41
2023-04-01T16:09:11.922Z,52181.72
2023-04-01T16:11:44.214Z,52200.03
2023-04-01T16:14:13.733Z,52183.75
2023-04-01T16:17:04.417Z,52206.16
2023-04-01T16:19:42.714Z,52208.19
2023-04-01T16:22:22.224Z,52226.50
2023-04-01T16:25:02.372Z,52254.97
2023-04-01T16:27:47.627Z,52240.75
2023-04-01T16:30:41.542Z,52250.91
2023-04-01T16:33:36.275Z,52230.56
2023-04-01T16:36:34.986Z,52238.69
2023-04-01T16:39:20.133Z,52242.78
2023-04-01T16:42:18.821Z,52259.03
2023-04-01T16:45:08.344Z,52210.22
2023-04-01T16:47:54.756Z,52269.22
2023-04-01T16:50:56.313Z,52236.66
2023-04-01T16:53:58.677Z,52214.28
2023-04-01T16:56:37.480Z,52267.19
2023-04-01T16:59:23.026Z,52242.78
2023-04-01T17:02:04.694Z,52244.81
2023-04-01T17:04:43.747Z,52244.81
2023-04-01T17:07:30.719Z,52289.56
2023-04-01T17:10:30.893Z,52259.03
2023-04-01T17:13:09.506Z,52244.81
2023-04-01T17:16:03.585Z,52265.16
2023-04-01T17:18:58.862Z,52224.47
2023-04-01T17:21:39.303Z,52313.97
2023-04-01T17:24:43.231Z,52279.41
2023-04-01T17:27:15.853Z,52263.13
2023-04-01T17:29:59.240Z,52267.19
2023-04-01T17:32:59.873Z,52287.53
2023-04-01T17:35:36.256Z,52295.66
2023-04-01T17:38:24.918Z,52277.34
2023-04-01T17:40:58.689Z,52305.84
2023-04-01T17:43:59.919Z,52324.16
2023-04-01T17:46:46.639Z,52277.34
2023-04-01T17:49:50.159Z,52281.44
2023-04-01T17:52:23.262Z,52330.25
2023-04-01T17:54:57.687Z,52271.25
2023-04-01T17:58:15.071Z,52297.72
2023-04-01T18:01:04.601Z,52326.19
2023-04-01T18:03:49.797Z,52318.06
2023-04-01T18:06:27.082Z,52307.88
2023-04-01T18:09:14.860Z,52281.44
2023-04-01T18:12:10.716Z,52338.41
2023-04-01T18:14:50.802Z,52316.03
2023-04-01T18:17:23.698Z,52330.25
2023-04-01T18:19:59.024Z,52287.53
2023-04-01T18:22:44.173Z,52326.19
2023-04-01T18:25:33.655Z,52362.81
2023-04-01T18:28:00.101Z,52313.97
2023-04-01T18:30:31.412Z,52287.53
2023-04-01T18:33:36.988Z,52334.34
2023-04-01T18:36:27.880Z,52332.28
2023-04-01T18:38:58.420Z,52303.81
2023-04-01T18:41:35.764Z,52342.47
2023-04-01T18:44:28.696Z,52332.28
2023-04-01T18:47:19.849Z,52366.88
2023-04-01T18:50:00.479Z,52322.13
2023-04-01T18:52:35.112Z,52338.41
2023-04-01T18:55:01.486Z,52291.59
2023-04-01T18:57:43.203Z,52334.34
2023-04-01T19:00:19.739Z,52344.50
2023-04-01T19:02:54.859Z,52322.13
2023-04-01T19:05:31.774Z,52320.09
2023-04-01T19:08:34.984Z,52330.25
2023-04-01T19:11:11.732Z,52330.25
2023-04-01T19:13:52.704Z,52368.94
2023-04-01T19:16:56.965Z,52350.59
2023-04-01T19:19:43.670Z,52334.34
2023-04-01T19:22:22.800Z,52318.06
2023-04-01T19:25:07.900Z,52342.47
2023-04-01T19:27:45.634Z,52358.75
2023-04-01T19:30:18.185Z,52340.44
2023-04-01T19:33:07.942Z,52348.56
2023-04-01T19:35:48.325Z,52342.47
2023-04-01T19:38:29.162Z,52332.28
2023-04-01T19:41:34.612Z,52375.03
2023-04-01T19:44:25.861Z,52379.09
2023-04-01T19:46:58.203Z,52328.22
2023-04-01T19:49:46.067Z,52356.72
2023-04-01T19:52:20.761Z,52318.06
2023-04-01T19:54:56.561Z,52348.56
2023-04-01T19:57:23.103Z,52358.75
2023-04-01T20:00:14.178Z,52326.19
2023-04-01T20:03:08.632Z,52316.03
2023-04-01T20:05:52.975Z,52320.09
2023-04-01T20:08:33.099Z,52336.38
2023-04-01T20:11:26.280Z,52366.88
2023-04-01T20:14:16.759Z,52358.75
2023-04-01T20:16:51.949Z,52397.41
2023-04-01T20:19:38.837Z,52358.75
2023-04-01T20:22:22.649Z,52366.88
2023-04-01T20:24:50.195Z,52362.81
2023-04-01T20:27:23.917Z,52332.28
2023-04-01T20:30:22.571Z,52370.97
2023-04-01T20:32:52.089Z,52354.69
2023-04-01T20:35:35.310Z,52358.75
2023-04-01T20:38:13.886Z,52409.63
2023-04-01T20:41:18.463Z,52352.66
2023-04-01T20:44:03.531Z,52320.09
2023-04-01T20:47:08.465Z,52348.56
2023-04-01T20:49:46.390Z,52346.53
2023-04-01T20:52:15.706Z,52421.81
2023-04-01T20:55:03.682Z,52346.53
2023-04-01T20:58:06.723Z,52344.50
2023-04-01T21:00:59.306Z,52409.63
2023-04-01T21:03:56.906Z,52381.13
2023-04-01T21:06:52.350Z,52375.03
2023-04-01T21:09:48.013Z,52370.97
2023-04-01T21:12:51.268Z,52350.59
2023-04-01T21:15:41.008Z,52366.88
2023-04-01T21:18:39.468Z,52405.56
2023-04-01T21:21:26.786Z,52391.31
2023-04-01T21:24:25.189Z,52399.44
2023-04-01T21:27:30.335Z,52397.41
2023-04-01T21:30:20.124Z,52397.41
2023-04-01T21:33:11.746Z,52379.09
2023-04-01T21:36:20.476Z,52423.88
2023-04-01T21:39:14.659Z,52403.50
2023-04-01T21:42:32.848Z,52407.59
2023-04-01T21:45:05.030Z,52403.50
2023-04-01T21:48:06.347Z,52391.31
2023-04-01T21:50:43.591Z,52387.22
2023-04-01T21:53:43.685Z,52399.44
2023-04-01T21:56:31.987Z,52393.34
2023-04-01T21:59:56.022Z,52425.91
2023-04-01T22:02:52.541Z,52425.91
2023-04-01T22:05:44.100Z,52399.44
2023-04-01T22:08:52.323Z,52399.44
2023-04-01T22:11:50.617Z,52421.81
2023-04-01T22:14:43.000Z,52403.50
2023-04-01T22:17:35.772Z,52429.97
2023-04-01T22:20:28.019Z,52381.13
2023-04-01T22:23:00.346Z,52421.81
2023-04-01T22:25:30.946Z,52429.97
2023-04-01T22:28:06.094Z,52434.03
2023-04-01T22:30:41.384Z,52419.78
2023-04-01T22:33:32.213Z,52415.72
2023-04-01T22:36:04.564Z,52409.63
2023-04-01T22:38:54.435Z,52413.69
2023-04-01T22:41:51.710Z,52411.66
2023-04-01T22:44:28.382Z,52423.88
2023-04-01T22:47:04.226Z,52432.00
2023-04-01T22:49:43.889Z,52423.88
2023-04-01T22:52:21.816Z,52434.03
2023-04-01T22:54:54.152Z,52417.75
2023-04-01T22:57:42.669Z,52409.63
2023-04-01T23:00:20.941Z,52421.81
2023-04-01T23:03:09.728Z,52395.38
2023-04-01T23:05:41.913Z,52436.06
2023-04-01T23:08:52.044Z,52429.97
2023-04-01T23:11:27.783Z,52462.53
2023-04-01T23:14:19.485Z,52419.78
2023-04-01T23:16:54.525Z,52462.53
2023-04-01T23:19:28.430Z,52434.03
2023-04-01T23:22:33.421Z,52464.56
2023-04-01T23:25:14.003Z,52438.09
2023-04-01T23:27:59.659Z,52427.94
2023-04-01T23:30:41.263Z,52405.56
2023-04-01T23:33:19.945Z,52427.94
2023-04-01T23:35:51.045Z,52452.34
2023-04-01T23:38:19.312Z,52421.81
2023-04-01T23:40:49.746Z,52442.19
2023-04-01T23:43:21.897Z,52440.13
2023-04-01T23:45:48.674Z,52460.50
2023-04-01T23:48:17.459Z,52486.94
2023-04-01T23:50:45.938Z,52468.63
2023-04-01T23:53:21.653Z,52448.28
2023-04-01T23:55:48.461Z,52493.03
2023-04-01T23:58:22.945Z,52476.75
